Time;durP1;ratioP1;P1;durP2;ratioP2;P2;SDS_P1;SDS_P2;PMS_P1;PMS_P2;Temp;Humidity;BMP_temperature;BMP_pressure;BME280_temperature;BME280_humidity;BME280_pressure;Samples;Min_cycle;Max_cycle;Signal;HPM_P1;HPM_P2
2021/05/12 00:02:14;;;;;;;;;3.25;3.00;;;;;20.79;27.72;99536.81;4976406;28;8809;-45
2021/05/12 00:04:40;;;;;;;;;3.75;3.75;;;;;20.78;27.76;99537.94;4977182;28;8823;-45
2021/05/12 00:07:05;;;;;;;;;4.00;4.00;;;;;20.78;27.78;99548.13;4979245;28;8811;-45
2021/05/12 00:09:30;;;;;;;;;3.50;3.50;;;;;20.78;27.75;99540.69;4985967;28;8792;-45
2021/05/12 00:11:56;;;;;;;;;3.25;3.25;;;;;20.78;27.65;99537.16;4998123;28;8857;-45
2021/05/12 00:14:21;;;;;;;;;3.75;3.75;;;;;20.77;27.66;99533.63;5001661;28;8796;-45
2021/05/12 00:16:47;;;;;;;;;3.50;3.50;;;;;20.77;27.76;99535.53;4997008;28;8835;-45
2021/05/12 00:19:13;;;;;;;;;3.00;3.00;;;;;20.76;27.78;99532.00;4997474;28;8870;-45
2021/05/12 00:21:46;;;;;;;;;3.00;3.00;;;;;20.74;27.87;99528.81;4999856;28;8854;-45
2021/05/12 00:24:11;;;;;;;;;3.00;3.00;;;;;20.74;27.91;99526.06;4994010;28;8810;-45
2021/05/12 00:26:38;;;;;;;;;3.00;3.00;;;;;20.73;27.81;99529.94;4995929;28;8800;-45
2021/05/12 00:29:17;;;;;;;;;3.00;3.00;;;;;20.72;27.88;99525.63;5000241;28;8832;-45
2021/05/12 00:31:44;;;;;;;;;3.00;3.00;;;;;20.72;27.64;99528.34;4998227;28;8804;-45
2021/05/12 00:34:09;;;;;;;;;2.40;2.40;;;;;20.72;27.80;99527.53;5000711;28;8810;-45
2021/05/12 00:36:36;;;;;;;;;3.00;3.00;;;;;20.71;27.96;99528.69;4995772;28;8806;-45
2021/05/12 00:39:05;;;;;;;;;2.20;2.20;;;;;20.72;27.54;99522.88;4993118;28;8818;-45
2021/05/12 00:41:31;;;;;;;;;3.00;2.00;;;;;20.71;27.71;99515.00;4997689;28;8812;-45
2021/05/12 00:43:56;;;;;;;;;3.25;3.25;;;;;20.68;27.88;99505.47;5001028;28;8858;-45
2021/05/12 00:46:22;;;;;;;;;3.00;3.00;;;;;20.67;27.80;99505.81;5000879;28;9254;-45
2021/05/12 00:48:48;;;;;;;;;3.00;3.00;;;;;20.70;27.74;99505.97;4993700;28;8942;-44
2021/05/12 00:51:14;;;;;;;;;4.20;4.20;;;;;20.70;27.92;99508.72;4982822;28;8783;-45
2021/05/12 00:53:39;;;;;;;;;3.00;3.00;;;;;20.56;27.86;99480.75;4981124;28;8818;-44
2021/05/12 00:56:05;;;;;;;;;2.50;2.50;;;;;20.69;27.85;99495.34;4975882;28;8828;-44
2021/05/12 00:58:31;;;;;;;;;4.50;4.50;;;;;20.59;27.87;99480.88;4974849;28;8799;-45
2021/05/12 01:00:57;;;;;;;;;3.60;3.60;;;;;20.68;27.93;99489.03;4986447;28;8876;-45
2021/05/12 01:03:23;;;;;;;;;3.00;3.00;;;;;20.56;27.96;99476.09;5001230;28;8839;-45
2021/05/12 01:05:51;;;;;;;;;3.00;3.00;;;;;20.67;27.97;99489.38;4996520;28;8784;-45
2021/05/12 01:08:18;;;;;;;;;3.00;3.00;;;;;20.66;27.91;99490.53;4997903;28;8798;-45
2021/05/12 01:10:45;;;;;;;;;3.00;3.00;;;;;20.65;27.94;99487.00;4999522;28;8816;-45
2021/05/12 01:13:12;;;;;;;;;3.00;3.00;;;;;20.65;27.85;99480.69;4973824;28;8822;-45
2021/05/12 01:15:38;;;;;;;;;3.00;3.00;;;;;20.65;28.08;99475.22;4990869;28;8780;-45
2021/05/12 01:18:09;;;;;;;;;3.00;3.00;;;;;20.64;27.94;99477.16;4990478;28;8901;-45
2021/05/12 01:20:46;;;;;;;;;2.00;2.00;;;;;20.65;27.88;99477.97;4982614;28;8803;-45
2021/05/12 01:23:12;;;;;;;;;4.00;3.60;;;;;20.58;28.05;99467.56;4995262;28;8870;-45
2021/05/12 01:25:37;;;;;;;;;2.25;2.25;;;;;20.59;28.14;99463.66;5000980;28;8824;-45
2021/05/12 01:28:03;;;;;;;;;2.80;2.80;;;;;20.62;27.94;99468.50;4981553;28;8813;-45
2021/05/12 01:30:29;;;;;;;;;2.25;2.25;;;;;20.61;28.13;99470.44;4991644;28;8866;-45
2021/05/12 01:32:59;;;;;;;;;3.00;3.00;;;;;20.62;28.25;99468.50;4998427;28;8752;-45
2021/05/12 01:35:24;;;;;;;;;2.60;2.60;;;;;20.61;27.99;99464.97;4991054;28;8921;-45
2021/05/12 01:37:50;;;;;;;;;2.20;2.20;;;;;20.59;28.07;99464.44;4978420;28;8920;-45
2021/05/12 01:40:15;;;;;;;;;3.00;3.00;;;;;20.57;27.98;99464.00;4979137;28;8787;-45
2021/05/12 01:42:40;;;;;;;;;3.50;3.00;;;;;20.60;27.95;99476.22;4976833;28;8827;-45
2021/05/12 01:45:07;;;;;;;;;3.00;3.00;;;;;20.60;28.10;99473.47;4975555;28;8789;-45
2021/05/12 01:47:33;;;;;;;;;3.00;3.00;;;;;20.60;28.18;99473.47;4975118;28;8825;-44
2021/05/12 01:50:03;;;;;;;;;2.75;2.75;;;;;20.60;28.25;99470.75;4979168;28;8798;-45
2021/05/12 01:52:29;;;;;;;;;2.00;2.00;;;;;20.58;28.03;99473.81;4978402;28;11620;-45
2021/05/12 01:54:54;;;;;;;;;2.25;2.25;;;;;20.57;28.06;99463.19;4996239;28;8784;-45
2021/05/12 01:57:19;;;;;;;;;2.75;2.75;;;;;20.58;28.08;99467.56;4992103;28;8830;-45
2021/05/12 01:59:45;;;;;;;;;2.25;2.25;;;;;20.57;28.11;99461.25;4987715;28;8780;-45
2021/05/12 02:02:10;;;;;;;;;2.00;2.00;;;;;20.57;28.25;99458.50;5002765;28;8785;-45
2021/05/12 02:04:38;;;;;;;;;3.00;3.00;;;;;20.57;28.12;99452.22;4980774;28;8819;-45
2021/05/12 02:07:04;;;;;;;;;2.80;2.80;;;;;20.57;28.28;99449.50;4983358;28;8811;-46
2021/05/12 02:09:37;;;;;;;;;3.00;3.00;;;;;20.55;28.11;99440.81;4977480;28;9611;-45
2021/05/12 02:12:03;;;;;;;;;2.00;2.00;;;;;20.56;28.11;99459.66;4986177;28;8780;-45
2021/05/12 02:14:28;;;;;;;;;2.00;2.00;;;;;20.56;28.10;99443.22;5003064;28;8812;-45
2021/05/12 02:16:54;;;;;;;;;3.00;3.00;;;;;20.56;28.33;99442.41;5005017;28;8836;-45
2021/05/12 02:19:19;;;;;;;;;3.00;3.00;;;;;20.54;28.05;99434.50;5001135;28;8816;-45
2021/05/12 02:21:44;;;;;;;;;4.75;4.25;;;;;20.53;28.24;99430.19;4998069;28;9537;-45
2021/05/12 02:24:10;;;;;;;;;3.00;3.00;;;;;20.53;28.33;99423.94;5001746;28;8806;-45
2021/05/12 02:26:37;;;;;;;;;2.00;2.00;;;;;20.46;28.36;99410.78;4998233;28;8804;-44
2021/05/12 02:29:02;;;;;;;;;2.40;2.40;;;;;20.53;28.36;99418.44;5001567;28;8787;-45
2021/05/12 02:31:28;;;;;;;;;3.00;3.00;;;;;20.52;28.47;99411.34;4999210;28;9558;-45
2021/05/12 02:33:53;;;;;;;;;3.00;3.00;;;;;20.51;28.38;99407.00;4999919;28;8788;-45
2021/05/12 02:36:18;;;;;;;;;3.00;3.00;;;;;20.52;28.13;99397.66;5003598;28;8764;-45
2021/05/12 02:38:43;;;;;;;;;2.00;2.00;;;;;20.51;28.35;99399.59;4996038;28;8898;-44
2021/05/12 02:41:09;;;;;;;;;3.00;3.00;;;;;20.50;28.27;99388.97;5001538;28;8796;-45
2021/05/12 02:43:34;;;;;;;;;1.50;1.50;;;;;20.50;28.44;99376.06;4996761;28;9580;-45
2021/05/12 02:46:00;;;;;;;;;2.25;2.25;;;;;20.50;28.28;99372.53;4999787;28;9494;-45
2021/05/12 02:48:25;;;;;;;;;3.00;3.00;;;;;20.50;28.27;99388.97;4994779;28;9567;-45
2021/05/12 02:50:50;;;;;;;;;3.00;3.00;;;;;20.49;28.31;99401.06;4998118;28;8804;-45
2021/05/12 02:53:16;;;;;;;;;3.00;3.00;;;;;20.49;28.46;99395.59;4999762;28;8804;-45
2021/05/12 02:55:41;;;;;;;;;3.00;3.00;;;;;20.48;28.46;99397.53;4993599;28;8842;-45
2021/05/12 02:58:08;;;;;;;;;3.00;3.00;;;;;20.49;28.44;99401.88;4998125;28;8784;-45
2021/05/12 03:00:37;;;;;;;;;3.00;3.00;;;;;20.49;28.50;99403.81;4996012;28;8824;-45
2021/05/12 03:03:02;;;;;;;;;2.80;2.80;;;;;20.49;28.38;99398.31;4995633;28;9756;-45
2021/05/12 03:05:30;;;;;;;;;2.25;2.25;;;;;20.48;28.42;99397.53;4979273;28;8978;-45
2021/05/12 03:07:55;;;;;;;;;2.20;2.20;;;;;20.47;28.41;99390.44;5003699;28;9569;-45
2021/05/12 03:10:22;;;;;;;;;3.25;3.00;;;;;20.46;28.37;99388.88;5003839;28;8797;-44
2021/05/12 03:12:48;;;;;;;;;2.00;2.00;;;;;20.47;28.45;99384.97;4995853;28;8787;-45
2021/05/12 03:15:17;;;;;;;;;2.25;2.25;;;;;20.46;28.50;99383.38;4991281;28;8849;-45
2021/05/12 03:17:42;;;;;;;;;3.00;3.00;;;;;20.46;28.39;99377.91;4979766;28;9434;-44
2021/05/12 03:20:09;;;;;;;;;2.75;2.75;;;;;20.45;28.55;99370.81;4996940;28;8824;-45
2021/05/12 03:22:36;;;;;;;;;2.00;2.00;;;;;20.44;28.32;99366.50;4997779;28;8854;-45
2021/05/12 03:25:03;;;;;;;;;3.00;3.00;;;;;20.43;28.48;99368.41;4983746;28;8846;-45
2021/05/12 03:27:28;;;;;;;;;2.40;2.40;;;;;20.46;28.46;99366.16;4978246;28;9543;-45
2021/05/12 03:29:53;;;;;;;;;2.25;2.25;;;;;20.44;28.50;99358.28;4978830;28;8827;-45
2021/05/12 03:32:18;;;;;;;;;2.00;2.00;;;;;20.43;28.46;99357.44;4978617;28;8818;-45
2021/05/12 03:34:44;;;;;;;;;3.00;3.00;;;;;20.39;28.67;99345.59;4999625;28;8805;-44
2021/05/12 03:37:09;;;;;;;;;2.25;2.25;;;;;20.41;28.66;99348.78;4980583;28;8810;-45
2021/05/12 03:39:34;;;;;;;;;3.00;3.00;;;;;20.45;28.58;99359.06;4981807;28;8914;-45
2021/05/12 03:42:00;;;;;;;;;2.50;2.50;;;;;20.42;28.52;99347.66;4980287;28;8787;-45
2021/05/12 03:44:25;;;;;;;;;2.00;2.00;;;;;20.41;28.60;99342.50;5001318;28;8894;-45
2021/05/12 03:46:51;;;;;;;;;3.00;3.00;;;;;20.42;28.69;99338.63;4997778;28;9577;-45
2021/05/12 03:49:16;;;;;;;;;2.75;2.75;;;;;20.42;28.69;99333.13;4984786;28;9483;-45
2021/05/12 03:51:41;;;;;;;;;2.00;2.00;;;;;20.43;28.61;99327.31;4974164;28;8800;-45
2021/05/12 03:54:07;;;;;;;;;2.00;2.00;;;;;20.42;28.55;99328.47;4981106;28;8809;-47
2021/05/12 03:56:32;;;;;;;;;3.00;3.00;;;;;20.41;28.56;99326.88;4982242;28;8865;-45
2021/05/12 03:58:58;;;;;;;;;2.00;2.00;;;;;20.40;28.48;99325.28;5000935;28;8878;-45
2021/05/12 04:01:23;;;;;;;;;3.00;3.00;;;;;20.41;28.70;99334.28;4996947;28;8806;-45
2021/05/12 04:03:49;;;;;;;;;3.00;3.00;;;;;20.40;28.70;99319.81;4985619;28;8814;-44
2021/05/12 04:06:14;;;;;;;;;3.00;3.00;;;;;20.40;28.64;99318.97;4979503;28;8928;-45
2021/05/12 04:08:39;;;;;;;;;3.00;3.00;;;;;20.39;28.64;99318.19;4976530;28;8791;-45
2021/05/12 04:11:04;;;;;;;;;2.00;2.00;;;;;20.40;28.82;99321.72;4983473;28;8799;-45
2021/05/12 04:13:30;;;;;;;;;2.00;2.00;;;;;20.40;28.57;99310.75;4981321;28;8791;-44
2021/05/12 04:15:55;;;;;;;;;3.00;3.00;;;;;20.40;28.67;99313.50;4987852;28;8899;-46
2021/05/12 04:18:21;;;;;;;;;2.25;2.25;;;;;20.40;28.66;99305.28;4997205;28;9636;-45
2021/05/12 04:20:46;;;;;;;;;3.25;3.25;;;;;20.39;28.76;99309.19;4994381;28;9658;-44
2021/05/12 04:23:12;;;;;;;;;2.60;2.60;;;;;20.38;28.61;99302.88;4978741;28;8965;-45
2021/05/12 04:25:37;;;;;;;;;2.00;2.00;;;;;20.37;28.71;99290.34;4994873;28;8804;-45
2021/05/12 04:28:03;;;;;;;;;2.25;2.25;;;;;20.37;28.58;99295.03;4976687;28;8827;-45
2021/05/12 04:30:31;;;;;;;;;3.00;3.00;;;;;20.37;28.85;99289.56;4973423;28;8889;-44
2021/05/12 04:32:59;;;;;;;;;3.00;3.00;;;;;20.36;28.72;99299.69;4980202;28;8855;-45
2021/05/12 04:35:24;;;;;;;;;3.00;3.00;;;;;20.37;28.87;99287.63;4978054;28;9002;-45
2021/05/12 04:37:50;;;;;;;;;2.20;2.20;;;;;20.36;28.87;99291.47;5005075;28;8828;-45
2021/05/12 04:40:16;;;;;;;;;3.00;3.00;;;;;20.35;28.79;99289.91;4994802;28;9021;-44
2021/05/12 04:42:41;;;;;;;;;2.25;2.25;;;;;20.35;28.87;99295.38;4993843;28;8796;-45
2021/05/12 04:45:11;;;;;;;;;3.00;3.00;;;;;20.35;28.91;99287.16;4990480;28;10695;-45
2021/05/12 04:47:37;;;;;;;;;2.00;2.00;;;;;20.34;28.84;99287.50;4977303;28;8812;-44
2021/05/12 04:50:05;;;;;;;;;3.00;3.00;;;;;20.30;28.88;99284.66;4979376;28;8912;-44
2021/05/12 04:52:30;;;;;;;;;2.00;2.00;;;;;20.33;28.79;99286.69;4993613;28;8780;-45
2021/05/12 04:54:55;;;;;;;;;2.00;2.00;;;;;20.34;28.90;99285.56;4983289;28;9551;-45
2021/05/12 04:57:21;;;;;;;;;3.00;3.00;;;;;20.34;29.02;99282.03;4985024;28;8800;-45
2021/05/12 04:59:46;;;;;;;;;2.25;2.25;;;;;20.35;28.97;99286.34;4994396;28;8779;-45
2021/05/12 05:02:12;;;;;;;;;3.00;3.00;;;;;20.33;29.01;99283.94;4979901;28;8803;-44
2021/05/12 05:04:41;;;;;;;;;2.20;2.00;;;;;20.32;28.91;99274.13;4978305;28;9230;-45
2021/05/12 05:07:08;;;;;;;;;3.00;3.00;;;;;20.31;28.92;99258.03;4976699;28;8862;-45
2021/05/12 05:09:33;;;;;;;;;3.00;3.00;;;;;20.27;28.90;99246.97;4987045;28;8853;-44
2021/05/12 05:11:59;;;;;;;;;2.75;2.75;;;;;20.32;28.91;99249.50;4995699;28;8817;-44
2021/05/12 05:14:24;;;;;;;;;3.25;3.25;;;;;20.30;28.93;99246.31;4993187;28;8951;-45
2021/05/12 05:16:49;;;;;;;;;2.00;2.00;;;;;20.30;29.14;99246.31;4996247;28;9714;-45
2021/05/12 05:19:15;;;;;;;;;2.75;2.75;;;;;20.31;29.13;99247.09;4979948;28;8917;-45
2021/05/12 05:21:41;;;;;;;;;2.25;2.25;;;;;20.28;29.03;99240.38;4987328;28;9544;-45
2021/05/12 05:24:08;;;;;;;;;3.00;3.00;;;;;20.31;29.15;99245.13;4994747;28;8789;-45
2021/05/12 05:26:34;;;;;;;;;2.00;2.00;;;;;20.32;29.02;99240.47;4992355;28;8824;-45
2021/05/12 05:28:59;;;;;;;;;2.00;2.00;;;;;20.27;29.02;99216.84;4977252;28;9526;-44
2021/05/12 05:31:24;;;;;;;;;2.00;2.00;;;;;20.31;29.18;99215.00;4987778;28;8811;-45
2021/05/12 05:33:50;;;;;;;;;2.00;2.00;;;;;20.28;29.05;99215.72;4984235;28;8889;-45
2021/05/12 05:36:15;;;;;;;;;2.00;2.00;;;;;20.27;29.05;99216.84;4975846;28;8841;-45
2021/05/12 05:38:40;;;;;;;;;3.00;3.00;;;;;20.28;29.27;99210.25;4979079;28;9503;-45
2021/05/12 05:41:06;;;;;;;;;2.00;2.00;;;;;20.28;29.22;99221.19;4993873;28;8815;-45
2021/05/12 05:43:31;;;;;;;;;2.00;2.00;;;;;20.26;29.27;99215.25;4991552;28;8917;-45
2021/05/12 05:45:57;;;;;;;;;2.00;2.00;;;;;20.27;29.18;99225.06;4981218;28;8771;-45
2021/05/12 05:48:22;;;;;;;;;2.00;2.00;;;;;20.26;29.24;99226.19;4977472;28;8942;-45
2021/05/12 05:50:48;;;;;;;;;3.00;3.00;;;;;20.27;29.11;99248.94;4977009;28;8879;-44
2021/05/12 05:53:17;;;;;;;;;3.20;3.00;;;;;20.26;29.23;99256.31;4994763;28;8800;-45
2021/05/12 05:55:43;;;;;;;;;2.00;2.00;;;;;20.26;29.17;99269.22;4995401;28;8806;-45
2021/05/12 05:58:08;;;;;;;;;3.00;3.00;;;;;20.26;29.38;99244.59;4994565;28;8807;-45
2021/05/12 06:00:33;;;;;;;;;3.00;3.00;;;;;20.24;29.40;99217.53;4982737;28;8912;-45
2021/05/12 06:03:00;;;;;;;;;3.00;3.00;;;;;20.24;29.26;99209.31;4979520;28;8829;-45
2021/05/12 06:05:25;;;;;;;;;2.80;2.80;;;;;20.23;29.38;99208.53;4975226;28;8830;-45
2021/05/12 06:07:50;;;;;;;;;2.25;2.25;;;;;20.23;29.27;99205.78;4979318;28;8834;-45
2021/05/12 06:10:16;;;;;;;;;3.00;3.00;;;;;20.23;29.27;99205.00;4991735;28;8804;-45
2021/05/12 06:12:41;;;;;;;;;3.00;3.00;;;;;20.24;29.34;99209.31;4994310;28;8848;-45
2021/05/12 06:15:07;;;;;;;;;3.00;3.00;;;;;20.23;29.54;99207.75;4996063;28;8805;-45
2021/05/12 06:17:33;;;;;;;;;3.00;3.00;;;;;20.22;29.49;99200.66;4992953;28;10036;-45
2021/05/12 06:19:58;;;;;;;;;4.00;3.00;;;;;20.22;29.44;99203.38;4995475;28;8814;-45
2021/05/12 06:22:23;;;;;;;;;3.00;3.00;;;;;20.22;29.50;99193.22;4973921;28;9793;-45
2021/05/12 06:24:48;;;;;;;;;2.00;2.00;;;;;20.21;29.43;99177.97;4973154;28;8783;-44
2021/05/12 06:27:14;;;;;;;;;3.00;3.00;;;;;20.22;29.56;99159.56;4975338;28;8827;-45
2021/05/12 06:29:39;;;;;;;;;2.25;2.25;;;;;20.21;29.54;99155.22;4975023;28;20182;-46
2021/05/12 06:32:06;;;;;;;;;2.00;2.00;;;;;20.22;29.47;99173.25;4977308;28;8799;-45
2021/05/12 06:34:33;;;;;;;;;4.00;4.00;;;;;20.20;29.62;99187.31;4978609;28;8814;-45
2021/05/12 06:36:59;;;;;;;;;3.60;3.60;;;;;20.18;29.48;99184.09;4990618;28;8921;-45
2021/05/12 06:39:25;;;;;;;;;2.50;2.50;;;;;20.19;29.46;99184.91;5000494;28;8894;-45
2021/05/12 06:41:50;;;;;;;;;2.40;2.40;;;;;20.15;29.68;99157.41;4993420;28;8791;-45
2021/05/12 06:44:15;;;;;;;;;3.00;3.00;;;;;20.19;29.63;99155.59;4981606;28;8818;-45
2021/05/12 06:46:41;;;;;;;;;3.00;3.00;;;;;20.19;29.53;99160.25;4996690;28;8804;-45
2021/05/12 06:49:06;;;;;;;;;2.25;2.25;;;;;20.20;29.66;99164.59;5001900;28;8812;-44
2021/05/12 06:51:31;;;;;;;;;2.00;2.00;;;;;20.19;29.56;99176.69;5000391;28;8788;-44
2021/05/12 06:53:57;;;;;;;;;2.00;2.00;;;;;20.19;29.72;99176.69;4999630;28;8780;-45
2021/05/12 06:56:23;;;;;;;;;2.00;2.00;;;;;20.19;29.68;99165.72;5003839;28;10158;-45
2021/05/12 06:58:48;;;;;;;;;2.00;2.00;;;;;20.17;29.61;99168.81;5001326;28;8811;-45
2021/05/12 07:01:13;;;;;;;;;3.00;2.25;;;;;20.10;29.64;99141.22;4995885;28;9911;-45
2021/05/12 07:03:39;;;;;;;;;2.50;2.50;;;;;20.13;29.63;99150.69;4998723;28;8823;-44
2021/05/12 07:06:05;;;;;;;;;3.20;3.20;;;;;20.01;29.72;99127.66;4995874;28;10920;-45
2021/05/12 07:08:33;;;;;;;;;3.00;3.00;;;;;20.19;29.61;99157.53;4980700;28;8795;-45
2021/05/12 07:10:58;;;;;;;;;2.60;2.60;;;;;20.16;29.82;99150.81;4997313;28;8816;-45
2021/05/12 07:13:24;;;;;;;;;3.00;3.00;;;;;20.16;29.68;99150.00;4980719;28;8900;-44
2021/05/12 07:15:49;;;;;;;;;2.00;2.00;;;;;20.15;29.88;99151.94;4978671;28;9056;-45
2021/05/12 07:18:14;;;;;;;;;2.75;2.25;;;;;20.15;29.72;99160.16;4986787;28;8788;-44
2021/05/12 07:20:39;;;;;;;;;2.00;2.00;;;;;20.16;29.75;99166.44;4996718;28;8784;-45
2021/05/12 07:23:07;;;;;;;;;3.00;3.00;;;;;20.16;29.88;99169.97;4999065;28;9940;-44
2021/05/12 07:25:33;;;;;;;;;3.00;3.00;;;;;20.15;29.99;99160.16;4997316;28;8817;-44
2021/05/12 07:27:59;;;;;;;;;3.00;3.00;;;;;20.10;29.98;99124.78;4995056;28;8792;-44
2021/05/12 07:30:25;;;;;;;;;2.60;2.60;;;;;20.15;30.02;99118.28;4996083;28;8926;-45
2021/05/12 07:32:51;;;;;;;;;2.50;2.50;;;;;20.16;30.11;99133.59;4992989;28;9718;-45
2021/05/12 07:35:16;;;;;;;;;2.00;2.00;;;;;20.15;30.18;99151.94;4976721;28;8787;-45
2021/05/12 07:37:42;;;;;;;;;2.00;2.00;;;;;20.14;29.88;99168.69;4976727;28;8791;-45
2021/05/12 07:40:08;;;;;;;;;2.00;2.00;;;;;20.15;30.02;99157.41;4992539;28;8772;-45
2021/05/12 07:42:36;;;;;;;;;2.00;2.00;;;;;20.13;30.02;99126.84;4981173;28;8929;-45
2021/05/12 07:45:01;;;;;;;;;2.00;2.00;;;;;20.13;30.10;99135.06;4981703;28;9530;-44
2021/05/12 07:47:27;;;;;;;;;2.00;2.00;;;;;20.12;30.07;99138.13;4997522;28;8811;-45
2021/05/12 07:49:52;;;;;;;;;3.00;3.00;;;;;20.12;29.90;99116.22;4999263;28;9596;-45
2021/05/12 07:52:18;;;;;;;;;2.75;2.75;;;;;20.12;29.95;99119.78;5000799;28;8823;-45
2021/05/12 07:54:44;;;;;;;;;3.25;3.00;;;;;20.12;29.88;99124.44;4997691;28;8808;-44
2021/05/12 07:57:11;;;;;;;;;2.60;2.60;;;;;20.13;29.89;99120.56;4996298;28;8806;-45
2021/05/12 07:59:37;;;;;;;;;2.00;2.00;;;;;20.13;30.05;99134.25;4996311;28;8805;-45
2021/05/12 08:02:04;;;;;;;;;3.00;3.00;;;;;20.12;30.05;99138.13;4999380;28;8882;-45
2021/05/12 08:04:31;;;;;;;;;3.00;3.00;;;;;20.11;29.97;99137.34;4995043;28;8827;-44
2021/05/12 08:06:57;;;;;;;;;2.20;2.20;;;;;20.08;30.09;99113.38;4996763;28;8771;-44
2021/05/12 08:09:23;;;;;;;;;2.00;2.00;;;;;20.11;29.96;99122.88;4997493;28;8800;-44
2021/05/12 08:11:48;;;;;;;;;2.00;2.00;;;;;20.11;30.22;99136.56;4998347;28;8828;-44
2021/05/12 08:14:14;;;;;;;;;3.00;3.00;;;;;20.11;30.08;99152.97;5000884;28;8811;-44
2021/05/12 08:16:39;;;;;;;;;2.25;2.25;;;;;20.11;30.16;99163.94;4977202;28;12360;-44
2021/05/12 08:19:06;;;;;;;;;3.00;2.25;;;;;20.11;30.07;99163.94;4976955;28;9550;-44
2021/05/12 08:21:31;;;;;;;;;2.00;2.00;;;;;20.09;30.13;99155.25;4979611;28;8791;-45
2021/05/12 08:23:57;;;;;;;;;2.00;2.00;;;;;20.13;30.22;99183.56;4976471;28;8837;-44
2021/05/12 08:26:22;;;;;;;;;2.00;2.00;;;;;20.10;30.19;99217.09;4977175;28;11702;-44
2021/05/12 08:28:47;;;;;;;;;2.50;2.00;;;;;20.11;30.19;99246.06;4980170;28;8815;-44
2021/05/12 08:31:13;;;;;;;;;2.00;2.00;;;;;20.10;30.07;99231.56;4973634;28;8822;-43
2021/05/12 08:33:41;;;;;;;;;1.20;1.20;;;;;20.09;30.24;99175.22;4977894;28;8876;-44
2021/05/12 08:36:06;;;;;;;;;2.00;2.00;;;;;20.07;30.25;99128.22;4977840;28;8861;-44
2021/05/12 08:38:31;;;;;;;;;2.25;2.25;;;;;20.07;30.01;99102.78;4976890;28;9587;-44
2021/05/12 08:41:00;;;;;;;;;1.75;1.75;;;;;20.05;30.17;99083.94;4996909;28;8866;-44
2021/05/12 08:43:28;;;;;;;;;2.00;2.00;;;;;20.07;30.27;99058.97;4998042;28;8832;-44
2021/05/12 08:45:55;;;;;;;;;2.00;2.00;;;;;20.06;30.24;99074.59;4996301;28;8893;-44
2021/05/12 08:48:23;;;;;;;;;2.00;2.00;;;;;20.09;30.29;99089.53;4999058;28;8797;-44
2021/05/12 08:50:49;;;;;;;;;2.00;2.00;;;;;20.06;30.30;99069.13;4991277;28;9719;-44
2021/05/12 08:53:16;;;;;;;;;1.00;1.00;;;;;20.06;30.42;99058.19;4980463;28;8941;-44
2021/05/12 08:55:41;;;;;;;;;1.80;1.80;;;;;20.06;30.27;99058.19;4972050;28;8936;-44
2021/05/12 08:58:06;;;;;;;;;2.00;2.00;;;;;20.05;30.27;99057.41;4976617;28;8922;-45
2021/05/12 09:00:33;;;;;;;;;2.00;2.00;;;;;20.05;30.40;99040.97;4976631;28;8831;-42
2021/05/12 09:03:00;;;;;;;;;2.00;2.00;;;;;20.07;31.11;99034.34;4973789;28;9539;-43
2021/05/12 09:05:28;;;;;;;;;5.00;4.00;;;;;21.02;30.89;99045.59;4974527;28;8809;-47
2021/05/12 09:07:55;;;;;;;;;3.00;3.00;;;;;21.74;29.92;99022.66;4975780;28;8799;-45
2021/05/12 09:10:21;;;;;;;;;2.60;2.20;;;;;22.40;27.83;99064.09;4973871;28;8798;-47
2021/05/12 09:12:59;;;;;;;;;1.00;1.00;;;;;22.69;26.35;99071.75;4986010;28;8890;-47
2021/05/12 09:15:27;;;;;;;;;1.40;1.40;;;;;22.84;25.14;99039.03;4988868;28;8802;-46
2021/05/12 09:17:55;;;;;;;;;1.00;1.00;;;;;22.96;24.43;99018.81;4975256;28;8830;-45
2021/05/12 09:20:21;;;;;;;;;2.20;2.00;;;;;23.13;23.81;99009.28;4994379;28;8843;-47
2021/05/12 09:22:48;;;;;;;;;1.75;1.75;;;;;23.24;23.16;98997.31;4980498;28;8842;-48
2021/05/12 09:25:17;;;;;;;;;2.00;2.00;;;;;23.44;22.91;98997.97;4988706;28;8808;-48
2021/05/12 09:27:48;;;;;;;;;2.00;2.00;;;;;23.43;22.67;98960.63;4993953;28;8820;-50
2021/05/12 09:30:23;;;;;;;;;1.60;1.60;;;;;23.62;22.41;98973.50;4989242;28;8947;-49
2021/05/12 09:32:49;;;;;;;;;1.40;1.40;;;;;23.76;21.82;98970.16;4980187;28;8791;-48
2021/05/12 09:35:15;;;;;;;;;2.00;2.00;;;;;23.83;21.69;98965.91;4997942;28;8823;-49
2021/05/12 09:37:43;;;;;;;;;1.40;1.40;;;;;23.98;21.28;98970.44;4978125;28;8798;-47
2021/05/12 09:40:10;;;;;;;;;2.00;2.00;;;;;23.99;21.35;98966.50;4976164;28;8783;-46
2021/05/12 09:42:38;;;;;;;;;1.80;1.80;;;;;23.97;20.78;98955.88;4986003;28;8801;-46
2021/05/12 09:45:21;;;;;;;;;2.40;2.40;;;;;22.76;23.33;98988.63;4995811;28;8806;-49
2021/05/12 09:47:49;;;;;;;;;1.80;1.80;;;;;22.14;25.36;98994.06;4992115;28;8824;-49
2021/05/12 09:50:29;;;;;;;;;2.00;2.00;;;;;22.06;25.93;98982.16;4980101;28;8795;-47
2021/05/12 09:52:56;;;;;;;;;2.00;2.00;;;;;22.01;26.29;98974.19;4996070;28;9684;-48
2021/05/12 09:55:33;;;;;;;;;2.00;2.00;;;;;21.96;26.51;98974.50;4980945;28;8913;-48
2021/05/12 09:58:00;;;;;;;;;2.40;2.40;;;;;21.96;26.52;98946.25;4973655;28;9044;-49
2021/05/12 10:00:34;;;;;;;;;1.00;1.00;;;;;22.01;26.74;98946.75;4973766;28;9589;-48
2021/05/12 10:03:01;;;;;;;;;2.00;2.00;;;;;21.99;26.57;98951.03;4974393;28;8861;-47
2021/05/12 10:05:27;;;;;;;;;2.00;2.00;;;;;22.00;26.69;98941.59;4973711;28;8835;-46
2021/05/12 10:07:59;;;;;;;;;2.00;2.00;;;;;22.27;26.43;98948.06;4977875;28;8826;-44
2021/05/12 10:10:36;;;;;;;;;1.00;1.00;;;;;22.17;27.49;98932.94;4994204;28;8947;-41
2021/05/12 10:13:01;;;;;;;;;2.00;2.00;;;;;22.72;25.73;98920.97;4983050;28;8799;-49
2021/05/12 10:15:26;;;;;;;;;1.25;1.25;;;;;24.08;23.21;98922.13;4987043;28;8812;-46
2021/05/12 10:17:53;;;;;;;;;1.00;1.00;;;;;24.42;22.38;98924.88;4997635;28;9116;-46
2021/05/12 10:20:19;;;;;;;;;1.00;1.00;;;;;24.57;21.72;98937.63;4998299;28;9557;-45
2021/05/12 10:22:45;;;;;;;;;1.00;1.00;;;;;24.53;21.08;98923.81;4996698;28;8811;-43
2021/05/12 10:25:10;;;;;;;;;1.00;1.00;;;;;24.72;20.09;98931.09;4999255;28;9547;-44
2021/05/12 10:27:37;;;;;;;;;1.00;1.00;;;;;24.76;19.59;98923.63;4987499;28;11061;-43
2021/05/12 10:30:05;;;;;;;;;1.00;1.00;;;;;24.67;19.05;98919.63;4983862;28;8850;-43
2021/05/12 10:32:34;;;;;;;;;1.40;1.40;;;;;24.80;18.80;98939.41;5000487;28;8906;-43
2021/05/12 10:35:12;;;;;;;;;1.20;1.20;;;;;24.65;19.00;98941.28;4998871;28;8885;-43
2021/05/12 10:37:42;;;;;;;;;1.00;1.00;;;;;24.41;21.32;98945.34;4993767;28;8784;-49
2021/05/12 10:40:32;;;;;;;;;2.20;2.20;;;;;24.10;23.57;98953.66;4995944;28;8950;-47
2021/05/12 10:43:18;;;;;;;;;1.00;1.00;;;;;23.85;24.67;98947.06;4985412;28;8794;-48
2021/05/12 10:45:57;;;;;;;;;1.40;1.40;;;;;23.61;25.99;98951.84;4988700;28;8827;-48
2021/05/12 10:48:48;;;;;;;;;1.40;1.40;;;;;23.46;26.98;98947.28;4997525;28;8791;-46
2021/05/12 10:51:20;;;;;;;;;1.20;1.20;;;;;23.31;27.42;98944.34;4993198;28;9577;-47
2021/05/12 10:53:48;;;;;;;;;1.00;1.00;;;;;23.30;28.07;98945.50;4977830;28;8786;-46
2021/05/12 10:56:15;;;;;;;;;1.00;1.00;;;;;23.18;28.52;98945.69;4980366;28;8888;-47
2021/05/12 10:59:08;;;;;;;;;1.40;1.40;;;;;23.11;28.80;98948.34;4997294;28;8789;-46
2021/05/12 11:01:41;;;;;;;;;1.60;1.60;;;;;23.03;29.15;98939.94;4998260;28;8808;-47
2021/05/12 11:04:09;;;;;;;;;1.80;1.80;;;;;23.22;28.22;98943.81;4995442;28;8890;-49
2021/05/12 11:06:34;;;;;;;;;1.60;1.60;;;;;23.67;25.87;98936.56;4997366;28;8781;-45
2021/05/12 11:09:09;;;;;;;;;1.00;1.00;;;;;24.02;24.60;98945.69;4992162;28;8916;-46
2021/05/12 11:11:38;;;;;;;;;1.00;1.00;;;;;22.80;26.83;98939.97;4976184;28;8821;-41
2021/05/12 11:14:24;;;;;;;;;1.00;1.00;;;;;24.00;24.11;98932.28;4977172;28;8818;-45
2021/05/12 11:16:59;;;;;;;;;1.00;1.00;;;;;24.41;22.74;98932.34;4975675;28;8858;-46
2021/05/12 11:19:43;;;;;;;;;2.00;2.00;;;;;24.63;22.35;98930.63;4977085;28;10961;-46
2021/05/12 11:22:39;;;;;;;;;2.00;2.00;;;;;24.81;21.79;98933.53;4991074;28;8874;-44
2021/05/12 11:25:16;;;;;;;;;1.00;1.00;;;;;24.88;21.50;98936.34;4994890;28;9574;-46
2021/05/12 11:33:25;;;;;;;;;2.00;2.00;;;;;22.58;26.68;98941.56;4986240;28;8890;-46
2021/05/12 11:35:58;;;;;;;;;1.00;1.00;;;;;22.48;27.02;98939.44;4997279;28;8813;-45
2021/05/12 11:38:24;;;;;;;;;2.00;2.00;;;;;22.29;27.80;98924.56;4995138;28;8804;-46
2021/05/12 11:41:19;;;;;;;;;1.00;1.00;;;;;22.29;27.87;98935.53;4996638;28;8934;-47
2021/05/12 11:43:56;;;;;;;;;1.80;1.80;;;;;22.25;27.73;98942.91;4976518;28;11568;-44
2021/05/12 11:46:32;;;;;;;;;1.60;1.60;;;;;22.34;27.43;98933.66;4975631;28;8786;-43
2021/05/12 11:49:04;;;;;;;;;1.00;1.00;;;;;22.77;26.40;98939.91;4977445;28;8783;-42